Time;durP1;ratioP1;P1;durP2;ratioP2;P2;SDS_P1;SDS_P2;PMS_P1;PMS_P2;Temp;Humidity;BMP_temperature;BMP_pressure;BME280_temperature;BME280_humidity;BME280_pressure;Samples;Min_cycle;Max_cycle;Signal;HPM_P1;HPM_P2
2021/08/14 00:01:41;;;;;;;10.52;5.05;;;26.80;75.80;;;;;;5050681;28;20061;-68
2021/08/14 00:04:45;;;;;;;8.65;5.38;;;26.80;75.40;;;;;;5050694;28;20029;-68
2021/08/14 00:07:49;;;;;;;8.25;5.45;;;26.90;74.80;;;;;;5050515;28;20491;-68
2021/08/14 00:10:54;;;;;;;8.80;5.68;;;26.90;75.10;;;;;;5050550;28;20044;-68
2021/08/14 00:13:58;;;;;;;8.93;5.30;;;26.90;74.80;;;;;;5050843;28;20330;-68
2021/08/14 00:17:02;;;;;;;13.70;4.97;;;26.90;74.60;;;;;;5061236;28;20044;-68
2021/08/14 00:20:07;;;;;;;7.40;5.05;;;26.90;73.90;;;;;;5050150;28;20387;-68
2021/08/14 00:23:11;;;;;;;6.78;4.60;;;26.90;73.50;;;;;;5050649;28;20048;-68
2021/08/14 00:26:15;;;;;;;7.90;4.63;;;26.90;73.30;;;;;;5050255;28;20036;-68
2021/08/14 00:29:19;;;;;;;11.38;5.32;;;26.90;73.60;;;;;;5050039;28;20048;-67
2021/08/14 00:32:23;;;;;;;10.93;5.38;;;26.90;73.60;;;;;;5050232;28;20500;-68
2021/08/14 00:35:27;;;;;;;13.30;5.40;;;26.90;73.60;;;;;;5050477;28;20052;-68
2021/08/14 00:38:32;;;;;;;11.02;4.75;;;26.80;73.30;;;;;;5049634;28;20047;-68
2021/08/14 00:41:36;;;;;;;11.85;5.30;;;26.80;73.30;;;;;;5048774;28;20044;-68
2021/08/14 00:44:40;;;;;;;11.98;4.50;;;26.80;73.40;;;;;;5050180;28;20048;-68
2021/08/14 00:47:44;;;;;;;8.75;4.90;;;26.70;73.80;;;;;;5049997;28;20044;-68
2021/08/14 00:50:48;;;;;;;10.80;4.75;;;26.70;73.50;;;;;;5050147;28;20036;-68
2021/08/14 00:53:53;;;;;;;6.95;4.68;;;26.60;73.90;;;;;;5049930;28;20040;-68
2021/08/14 00:56:57;;;;;;;8.82;5.57;;;26.60;74.00;;;;;;5049679;28;20060;-68
2021/08/14 01:00:02;;;;;;;9.27;4.93;;;26.50;74.20;;;;;;5049490;28;20048;-68
2021/08/14 01:03:07;;;;;;;10.85;5.57;;;26.50;74.20;;;;;;5049972;28;20048;-68
2021/08/14 01:06:17;;;;;;;9.32;4.93;;;26.50;73.30;;;;;;5049056;28;20040;-68
2021/08/14 01:09:22;;;;;;;7.05;5.03;;;26.40;73.90;;;;;;5049554;28;20044;-68
2021/08/14 01:12:25;;;;;;;15.07;5.35;;;26.30;75.50;;;;;;5049785;28;20486;-68
2021/08/14 01:15:30;;;;;;;10.90;5.70;;;26.10;76.00;;;;;;5050266;28;20052;-68
2021/08/14 01:18:37;;;;;;;10.77;5.57;;;26.00;77.40;;;;;;5049629;28;20068;-68
2021/08/14 01:21:52;;;;;;;8.40;5.70;;;26.00;77.30;;;;;;5049530;28;20052;-68
2021/08/14 01:24:56;;;;;;;10.43;5.63;;;26.10;77.90;;;;;;5049802;28;20044;-68
2021/08/14 01:28:00;;;;;;;6.80;5.38;;;26.10;78.20;;;;;;5049386;28;20040;-67
2021/08/14 01:31:07;;;;;;;10.20;5.70;;;26.10;77.70;;;;;;5049799;28;20048;-68
2021/08/14 01:34:12;;;;;;;8.50;5.63;;;26.10;77.40;;;;;;5050180;28;20044;-68
2021/08/14 01:37:17;;;;;;;7.97;5.35;;;26.10;77.90;;;;;;5049772;28;20397;-68
2021/08/14 01:40:21;;;;;;;12.73;5.43;;;26.10;78.50;;;;;;5049427;28;20493;-68
2021/08/14 01:43:25;;;;;;;8.02;5.45;;;26.00;78.60;;;;;;5049607;28;20044;-68
2021/08/14 01:46:41;;;;;;;7.88;5.20;;;25.90;78.00;;;;;;5049349;28;20032;-68
2021/08/14 01:49:46;;;;;;;9.68;5.07;;;26.00;77.60;;;;;;5048946;28;20052;-68
2021/08/14 01:52:54;;;;;;;8.80;5.53;;;26.00;77.10;;;;;;5049405;28;20048;-68
2021/08/14 01:55:58;;;;;;;12.85;5.00;;;26.00;76.20;;;;;;5049401;28;20498;-68
2021/08/14 01:59:05;;;;;;;8.07;5.15;;;25.90;75.90;;;;;;5046590;28;20116;-68
2021/08/14 02:02:10;;;;;;;12.32;5.20;;;25.90;76.00;;;;;;5033919;28;20491;-68
2021/08/14 02:05:15;;;;;;;8.50;5.03;;;25.90;76.30;;;;;;5058212;28;20033;-68
2021/08/14 02:08:19;;;;;;;10.93;5.55;;;25.80;76.70;;;;;;5048736;28;20047;-68
2021/08/14 02:11:27;;;;;;;11.15;5.03;;;25.80;76.90;;;;;;5053124;28;20427;-68
2021/08/14 02:14:31;;;;;;;9.43;4.68;;;25.70;77.20;;;;;;5052914;28;20115;-68
2021/08/14 02:17:35;;;;;;;8.25;4.97;;;25.50;77.50;;;;;;5063521;28;20044;-68
2021/08/14 02:20:39;;;;;;;6.95;5.40;;;25.40;77.60;;;;;;5048318;28;20048;-68
2021/08/14 02:23:44;;;;;;;10.70;6.05;;;25.40;78.10;;;;;;5047018;28;20047;-68
2021/08/14 02:26:48;;;;;;;11.80;5.80;;;25.30;78.90;;;;;;5051475;28;20039;-68
2021/08/14 02:29:52;;;;;;;8.13;5.18;;;25.20;79.40;;;;;;5052068;28;20120;-67
2021/08/14 02:32:56;;;;;;;8.02;6.22;;;25.20;80.40;;;;;;5052464;28;20053;-67
2021/08/14 02:36:01;;;;;;;10.48;6.05;;;25.10;81.20;;;;;;5052698;28;20064;-68
2021/08/14 02:39:05;;;;;;;8.18;6.25;;;25.10;81.60;;;;;;5051512;28;20047;-68
2021/08/14 02:42:09;;;;;;;12.15;6.80;;;25.00;82.30;;;;;;5052635;28;20491;-68
2021/08/14 02:45:15;;;;;;;12.43;6.35;;;25.00;81.80;;;;;;5052486;28;20048;-68
2021/08/14 02:48:19;;;;;;;8.05;5.82;;;25.00;81.90;;;;;;5051848;28;20403;-68
2021/08/14 02:51:23;;;;;;;10.25;5.90;;;25.00;81.70;;;;;;5051428;28;20502;-68
2021/08/14 02:54:27;;;;;;;8.90;5.50;;;25.00;81.30;;;;;;5051376;28;20048;-68
2021/08/14 02:57:31;;;;;;;8.23;4.97;;;25.00;81.10;;;;;;5052033;28;20051;-68
2021/08/14 03:00:35;;;;;;;9.82;5.75;;;25.10;81.40;;;;;;5051758;28;20040;-68
2021/08/14 03:03:39;;;;;;;9.35;6.18;;;25.00;81.50;;;;;;5052037;28;20040;-68
2021/08/14 03:06:43;;;;;;;14.85;6.80;;;25.10;81.70;;;;;;5052118;28;20044;-68
2021/08/14 03:09:47;;;;;;;9.63;5.70;;;25.10;81.90;;;;;;5051599;28;20052;-68
2021/08/14 03:12:51;;;;;;;8.75;5.68;;;25.00;82.20;;;;;;5051428;28;20048;-68
2021/08/14 03:15:56;;;;;;;10.05;6.00;;;24.90;82.50;;;;;;5051851;28;20052;-68
2021/08/14 03:19:00;;;;;;;9.38;6.82;;;24.90;83.00;;;;;;5051267;28;20040;-68
2021/08/14 03:22:04;;;;;;;10.20;5.85;;;24.90;83.70;;;;;;5051001;28;20044;-68
2021/08/14 03:25:09;;;;;;;7.85;6.18;;;24.80;83.80;;;;;;5051761;28;20044;-68
2021/08/14 03:28:14;;;;;;;9.60;6.28;;;24.80;83.80;;;;;;5050896;28;20051;-68
2021/08/14 03:31:20;;;;;;;8.75;6.28;;;24.80;84.10;;;;;;5031528;28;20049;-68
2021/08/14 03:34:26;;;;;;;16.77;6.47;;;24.70;84.60;;;;;;5031658;28;20049;-68
2021/08/14 03:37:30;;;;;;;11.32;6.18;;;24.60;85.00;;;;;;5031746;28;20617;-68
2021/08/14 03:40:34;;;;;;;11.23;6.20;;;24.50;85.70;;;;;;5031323;28;20051;-68
2021/08/14 03:43:38;;;;;;;9.43;6.35;;;24.50;86.50;;;;;;5031312;28;20052;-68
2021/08/14 03:46:42;;;;;;;11.18;6.90;;;24.40;86.60;;;;;;5031164;28;20048;-68
2021/08/14 03:49:46;;;;;;;11.32;7.15;;;24.30;87.80;;;;;;5030096;28;20045;-68
2021/08/14 03:52:50;;;;;;;14.32;7.20;;;24.20;89.20;;;;;;5030942;28;20041;-68
2021/08/14 03:55:55;;;;;;;15.13;7.15;;;24.00;90.20;;;;;;5031183;28;20048;-68
2021/08/14 03:58:59;;;;;;;10.50;6.85;;;23.90;90.70;;;;;;5030678;28;20052;-68
2021/08/14 04:02:04;;;;;;;10.25;6.80;;;23.90;91.20;;;;;;5030595;28;20045;-68
2021/08/14 04:05:09;;;;;;;11.23;7.03;;;23.80;90.60;;;;;;5030994;28;20499;-68
2021/08/14 04:08:13;;;;;;;10.85;7.35;;;23.80;90.90;;;;;;5030348;28;20044;-68
2021/08/14 04:11:17;;;;;;;21.35;7.78;;;23.70;91.10;;;;;;5031032;28;20040;-68
2021/08/14 04:14:21;;;;;;;14.95;7.55;;;23.70;91.60;;;;;;5030588;28;20443;-68
2021/08/14 04:17:25;;;;;;;11.27;6.93;;;23.70;91.80;;;;;;5030662;28;20040;-68
2021/08/14 04:20:29;;;;;;;9.43;7.07;;;23.70;91.80;;;;;;5030412;28;20039;-68
2021/08/14 04:23:34;;;;;;;11.98;6.55;;;23.60;91.80;;;;;;5030290;28;20052;-68
2021/08/14 04:26:38;;;;;;;10.02;7.47;;;23.60;91.90;;;;;;5030242;28;20044;-67
2021/08/14 04:29:42;;;;;;;11.50;7.55;;;23.70;92.10;;;;;;5037052;28;20494;-68
2021/08/14 04:32:46;;;;;;;11.80;7.63;;;23.70;92.50;;;;;;5048780;28;20044;-68
2021/08/14 04:35:50;;;;;;;17.75;9.38;;;23.60;92.90;;;;;;5050292;28;20064;-68
2021/08/14 04:38:54;;;;;;;14.90;8.05;;;23.60;93.80;;;;;;5049580;28;20521;-68
2021/08/14 04:41:58;;;;;;;13.25;8.77;;;23.70;94.10;;;;;;5050071;28;20059;-68
2021/08/14 04:45:03;;;;;;;11.82;8.02;;;23.70;93.70;;;;;;5048985;28;20040;-68
2021/08/14 04:48:07;;;;;;;14.02;8.35;;;23.80;94.10;;;;;;5049592;28;20060;-68
2021/08/14 04:51:11;;;;;;;10.13;7.47;;;23.80;94.50;;;;;;5049856;28;20048;-68
2021/08/14 04:54:15;;;;;;;14.32;8.60;;;23.80;94.30;;;;;;5049550;28;20495;-68
2021/08/14 04:57:19;;;;;;;11.60;8.15;;;23.70;94.90;;;;;;5050074;28;20075;-68
2021/08/14 05:00:23;;;;;;;18.88;8.65;;;23.70;94.90;;;;;;5049906;28;20495;-68
2021/08/14 05:03:28;;;;;;;11.15;7.35;;;23.80;94.80;;;;;;5049607;28;20044;-68
2021/08/14 05:06:32;;;;;;;15.90;7.78;;;23.90;94.50;;;;;;5050081;28;20490;-68
2021/08/14 05:09:37;;;;;;;8.85;6.93;;;23.90;94.20;;;;;;5049864;28;20036;-67
2021/08/14 05:12:42;;;;;;;13.30;7.75;;;24.00;94.00;;;;;;5049005;28;20538;-68
2021/08/14 05:15:46;;;;;;;11.95;7.63;;;24.20;93.80;;;;;;5049703;28;20040;-67
2021/08/14 05:18:54;;;;;;;11.32;7.30;;;25.70;92.60;;;;;;5049208;28;20502;-67
2021/08/14 05:21:58;;;;;;;12.20;7.97;;;28.00;89.70;;;;;;5049864;28;20043;-68
2021/08/14 05:25:03;;;;;;;9.70;7.10;;;29.50;84.60;;;;;;5049395;28;20040;-68
2021/08/14 05:28:07;;;;;;;11.52;7.18;;;30.70;81.20;;;;;;5049365;28;20052;-68
2021/08/14 05:31:11;;;;;;;11.52;7.45;;;31.60;78.70;;;;;;5049698;28;20035;-68
2021/08/14 05:34:15;;;;;;;13.07;6.90;;;32.10;76.80;;;;;;5049460;28;20044;-68
2021/08/14 05:37:20;;;;;;;10.90;7.03;;;32.50;75.90;;;;;;5049811;28;20032;-68
2021/08/14 05:40:24;;;;;;;13.07;6.88;;;33.10;74.90;;;;;;5049437;28;20040;-68
2021/08/14 05:43:29;;;;;;;10.55;6.53;;;32.70;74.60;;;;;;5049572;28;20044;-68
2021/08/14 05:46:33;;;;;;;9.95;6.35;;;33.30;74.00;;;;;;5052589;28;20035;-68
2021/08/14 05:49:37;;;;;;;10.90;6.90;;;33.60;72.90;;;;;;5053153;28;20040;-68
2021/08/14 05:52:42;;;;;;;8.60;5.78;;;34.20;72.80;;;;;;5053382;28;20060;-68
2021/08/14 05:55:47;;;;;;;13.57;6.20;;;34.70;71.60;;;;;;5053486;28;20040;-68
2021/08/14 05:58:51;;;;;;;9.77;6.13;;;35.10;70.60;;;;;;5053255;28;20642;-68
2021/08/14 06:01:55;;;;;;;10.23;6.15;;;34.70;70.90;;;;;;5053271;28;20040;-68
2021/08/14 06:04:59;;;;;;;11.20;6.35;;;34.30;70.20;;;;;;5052836;28;20597;-68
2021/08/14 06:08:04;;;;;;;7.50;6.28;;;33.50;70.70;;;;;;5052813;28;20036;-68
2021/08/14 06:11:09;;;;;;;10.95;6.57;;;33.10;72.70;;;;;;5052675;28;20040;-68
2021/08/14 06:14:14;;;;;;;9.10;6.38;;;33.00;73.30;;;;;;5053014;28;20048;-68
2021/08/14 06:17:18;;;;;;;8.15;6.57;;;32.80;72.90;;;;;;5053223;28;20055;-68
2021/08/14 06:20:23;;;;;;;9.85;6.20;;;33.60;71.70;;;;;;5052527;28;20048;-68
2021/08/14 06:23:27;;;;;;;10.27;5.50;;;33.30;71.10;;;;;;5052591;28;20052;-67
2021/08/14 06:26:31;;;;;;;8.80;6.15;;;33.70;70.80;;;;;;5052453;28;20052;-68
2021/08/14 06:29:35;;;;;;;9.43;5.25;;;33.90;70.40;;;;;;5052281;28;20593;-68
2021/08/14 06:32:40;;;;;;;10.40;5.82;;;35.10;69.50;;;;;;5052717;28;20508;-68
2021/08/14 06:35:44;;;;;;;8.30;5.78;;;35.80;68.20;;;;;;5052264;28;20044;-68
2021/08/14 06:38:48;;;;;;;9.25;5.72;;;35.70;68.40;;;;;;5052250;28;20044;-68
2021/08/14 06:41:52;;;;;;;9.75;5.75;;;35.10;68.70;;;;;;5052297;28;20048;-68
2021/08/14 06:44:56;;;;;;;10.15;5.28;;;35.50;66.90;;;;;;5052189;28;20075;-69
2021/08/14 06:48:00;;;;;;;9.07;4.97;;;36.00;66.80;;;;;;5052003;28;20040;-69
2021/08/14 06:51:04;;;;;;;6.78;5.10;;;36.60;65.30;;;;;;5052002;28;20040;-68
2021/08/14 06:54:08;;;;;;;6.55;5.00;;;35.10;67.40;;;;;;5052233;28;20047;-68
2021/08/14 06:57:12;;;;;;;7.00;5.40;;;35.80;66.80;;;;;;5050941;28;20051;-68
2021/08/14 07:00:16;;;;;;;6.50;5.10;;;35.30;66.80;;;;;;5052153;28;20036;-68
2021/08/14 07:03:21;;;;;;;5.15;4.65;;;34.60;68.50;;;;;;5051669;28;20044;-68
2021/08/14 07:06:26;;;;;;;9.07;4.63;;;35.90;66.80;;;;;;5051846;28;20044;-68
2021/08/14 07:09:30;;;;;;;7.97;5.05;;;36.70;65.40;;;;;;5062522;28;20506;-68
2021/08/14 07:12:34;;;;;;;12.90;5.20;;;35.50;66.10;;;;;;5051870;28;20039;-69
2021/08/14 07:15:38;;;;;;;8.13;4.47;;;36.40;65.40;;;;;;5062332;28;20048;-68
2021/08/14 07:18:42;;;;;;;7.95;4.57;;;37.20;64.20;;;;;;5051267;28;20040;-68
2021/08/14 07:21:47;;;;;;;11.15;5.20;;;37.40;64.80;;;;;;5051556;28;20055;-68
2021/08/14 07:24:51;;;;;;;6.75;4.70;;;37.40;63.80;;;;;;5051679;28;20059;-66
2021/08/14 07:27:55;;;;;;;9.50;4.68;;;36.30;64.50;;;;;;5051011;28;20251;-68
2021/08/14 07:31:00;;;;;;;8.18;4.65;;;36.70;65.60;;;;;;5051642;28;20388;-68
2021/08/14 07:34:04;;;;;;;7.40;4.53;;;36.90;64.30;;;;;;5051443;28;20507;-68
2021/08/14 07:37:08;;;;;;;8.27;5.03;;;37.80;64.30;;;;;;5051237;28;20052;-68
2021/08/14 07:40:16;;;;;;;7.05;4.57;;;37.30;64.50;;;;;;5051427;28;20040;-68
2021/08/14 07:43:20;;;;;;;10.15;4.85;;;37.90;64.10;;;;;;5051539;28;20056;-68
2021/08/14 07:46:23;;;;;;;9.80;5.20;;;38.70;63.20;;;;;;5051375;28;20037;-68
2021/08/14 07:49:27;;;;;;;9.40;4.97;;;38.00;63.00;;;;;;5050820;28;20052;-68
2021/08/14 07:52:32;;;;;;;8.52;4.05;;;38.80;62.70;;;;;;5051414;28;20056;-68
2021/08/14 07:55:36;;;;;;;7.72;4.35;;;40.00;61.50;;;;;;5051062;28;20055;-67
2021/08/14 07:58:40;;;;;;;6.53;4.55;;;41.10;60.30;;;;;;5050633;28;20044;-68
2021/08/14 08:01:44;;;;;;;7.13;4.32;;;40.30;60.60;;;;;;5051444;28;20305;-68
2021/08/14 08:04:47;;;;;;;6.60;4.32;;;40.80;59.50;;;;;;5050813;28;20044;-68
2021/08/14 08:07:53;;;;;;;7.10;4.75;;;40.70;59.50;;;;;;5049436;28;20045;-69
2021/08/14 08:10:57;;;;;;;7.78;4.07;;;41.70;57.50;;;;;;5051008;28;20044;-68
2021/08/14 08:14:01;;;;;;;4.38;3.83;;;42.40;57.80;;;;;;5050392;28;20056;-68
2021/08/14 08:17:05;;;;;;;6.68;3.90;;;43.40;57.30;;;;;;5050496;28;20499;-68
2021/08/14 08:20:11;;;;;;;8.48;4.22;;;42.50;57.20;;;;;;5050135;28;20044;-66
2021/08/14 08:23:16;;;;;;;8.70;4.60;;;43.30;57.40;;;;;;5049638;28;20487;-67
2021/08/14 08:26:20;;;;;;;6.80;4.38;;;40.60;57.90;;;;;;5050460;28;20043;-67
2021/08/14 08:29:25;;;;;;;7.70;4.30;;;40.10;59.50;;;;;;5049485;28;20051;-68
2021/08/14 08:32:29;;;;;;;9.05;4.40;;;40.80;58.20;;;;;;5050288;28;20044;-68
2021/08/14 08:35:33;;;;;;;10.27;3.58;;;40.80;57.80;;;;;;5049940;28;20040;-68
2021/08/14 08:38:37;;;;;;;5.65;3.40;;;43.10;55.90;;;;;;5049758;28;20048;-68
2021/08/14 08:41:41;;;;;;;7.15;4.00;;;45.00;54.00;;;;;;5050497;28;20048;-68
2021/08/14 08:44:44;;;;;;;5.70;3.40;;;44.60;52.20;;;;;;5049506;28;20050;-68
2021/08/14 08:47:50;;;;;;;6.05;3.22;;;46.10;50.80;;;;;;5049747;28;20048;-66
2021/08/14 08:50:55;;;;;;;13.23;3.20;;;47.20;50.20;;;;;;5049152;28;20384;-66
2021/08/14 08:54:00;;;;;;;12.85;3.72;;;46.20;50.00;;;;;;5049931;28;20040;-68
2021/08/14 08:57:04;;;;;;;4.95;3.00;;;44.50;50.60;;;;;;5050305;28;20052;-68
2021/08/14 09:00:14;;;;;;;6.65;3.20;;;46.10;49.80;;;;;;5049757;28;20040;-69
2021/08/14 09:03:18;;;;;;;;;;;45.30;50.00;;;;;;5050887;28;20048;-68
2021/08/14 09:06:41;;;;;;;16.13;3.83;;;43.60;51.00;;;;;;5049708;28;19916;-68
2021/08/14 09:09:45;;;;;;;6.50;3.10;;;45.50;50.80;;;;;;5049445;28;20498;-66
2021/08/14 09:12:49;;;;;;;6.15;3.30;;;46.70;49.60;;;;;;5050058;28;20415;-68
2021/08/14 09:15:55;;;;;;;9.02;4.25;;;48.80;49.20;;;;;;5049636;28;20048;-68
2021/08/14 09:19:01;;;;;;;5.32;3.40;;;49.10;48.00;;;;;;5051513;28;20044;-68
2021/08/14 09:22:20;;;;;;;5.25;2.85;;;47.30;49.20;;;;;;5053736;28;20048;-68
2021/08/14 09:25:24;;;;;;;10.68;2.97;;;49.70;48.10;;;;;;5053506;28;20052;-68
2021/08/14 09:28:31;;;;;;;11.32;3.10;;;50.20;46.60;;;;;;5053301;28;20267;-68
2021/08/14 09:31:52;;;;;;;7.38;3.17;;;46.80;46.70;;;;;;5033491;28;20045;-68
2021/08/14 09:34:58;;;;;;;5.55;2.92;;;49.30;47.30;;;;;;5033875;28;20391;-68
2021/08/14 09:38:23;;;;;;;3.80;2.70;;;49.10;46.60;;;;;;5033049;28;20045;-68
2021/08/14 09:41:27;;;;;;;4.85;2.88;;;50.70;45.60;;;;;;5033514;28;20052;-66
2021/08/14 09:44:33;;;;;;;5.75;3.10;;;51.40;44.80;;;;;;5033549;28;20046;-65
2021/08/14 09:47:38;;;;;;;11.35;3.15;;;51.80;44.90;;;;;;5033451;28;20045;-65
2021/08/14 09:50:43;;;;;;;3.65;2.80;;;51.60;44.80;;;;;;5043799;28;20040;-66
2021/08/14 09:53:53;;;;;;;4.03;2.70;;;51.80;44.40;;;;;;5033435;28;20045;-66
2021/08/14 09:57:13;;;;;;;6.30;2.85;;;52.20;44.10;;;;;;5033250;28;20057;-66
2021/08/14 10:00:17;;;;;;;7.60;2.83;;;52.80;43.90;;;;;;5033475;28;20065;-66
2021/08/14 10:03:22;;;;;;;7.75;2.60;;;51.60;42.00;;;;;;5033523;28;20045;-68
2021/08/14 10:06:28;;;;;;;4.18;2.22;;;49.90;42.70;;;;;;5033346;28;20384;-68
2021/08/14 10:09:34;;;;;;;2.63;2.42;;;48.70;43.20;;;;;;5033177;28;20029;-67
2021/08/14 10:12:38;;;;;;;6.78;2.80;;;48.30;43.50;;;;;;5032967;28;20539;-69
2021/08/14 10:15:43;;;;;;;4.57;2.80;;;49.30;44.10;;;;;;5033232;28;20044;-67
2021/08/14 10:18:47;;;;;;;6.40;3.35;;;47.30;44.70;;;;;;5032458;28;20351;-68
2021/08/14 10:21:55;;;;;;;6.80;2.30;;;50.30;44.40;;;;;;5032888;28;20052;-68
2021/08/14 10:24:59;;;;;;;3.63;2.55;;;52.70;42.40;;;;;;5033009;28;20044;-68
2021/08/14 10:28:06;;;;;;;4.97;2.10;;;53.30;42.30;;;;;;5032251;28;20049;-66
2021/08/14 10:31:45;;;;;;;5.32;2.38;;;50.60;40.40;;;;;;5051452;28;20123;-68
2021/08/14 10:34:49;;;;;;;5.93;2.80;;;46.70;42.80;;;;;;5030325;28;20048;-68
2021/08/14 10:37:53;;;;;;;5.55;2.50;;;44.70;44.40;;;;;;5051895;28;20036;-68
2021/08/14 10:41:00;;;;;;;4.32;2.53;;;48.40;43.50;;;;;;5052395;28;20048;-68
2021/08/14 10:44:06;;;;;;;3.35;2.15;;;51.10;42.70;;;;;;5052263;28;20052;-69
2021/08/14 10:47:45;;;;;;;6.20;2.40;;;52.40;41.80;;;;;;5052525;28;20044;-69
2021/08/14 10:50:55;;;;;;;3.90;2.20;;;52.20;41.50;;;;;;5030324;28;20059;-68
2021/08/14 10:53:59;;;;;;;4.32;2.22;;;50.80;41.40;;;;;;5052080;28;20048;-69
2021/08/14 10:57:09;;;;;;;8.48;2.65;;;51.40;40.90;;;;;;5051973;28;20064;-68
2021/08/14 11:00:17;;;;;;;6.93;2.70;;;51.50;41.20;;;;;;5051907;28;20056;-68
2021/08/14 11:03:31;;;;;;;5.32;2.50;;;52.20;41.00;;;;;;5051723;28;20120;-68
2021/08/14 11:06:37;;;;;;;5.45;2.38;;;53.70;40.90;;;;;;5052050;28;20037;-67
2021/08/14 11:09:41;;;;;;;6.97;2.50;;;48.50;39.50;;;;;;5050572;28;20056;-68
2021/08/14 11:12:51;;;;;;;5.55;2.70;;;47.30;41.30;;;;;;5051954;28;20040;-68
2021/08/14 11:15:55;;;;;;;4.57;2.38;;;45.20;42.90;;;;;;5051825;28;20051;-68
2021/08/14 11:19:00;;;;;;;13.48;3.15;;;46.40;43.10;;;;;;5051226;28;20040;-68
2021/08/14 11:22:21;;;;;;;4.43;2.30;;;47.80;40.90;;;;;;5051939;28;20399;-68
2021/08/14 11:25:46;;;;;;;5.45;2.70;;;49.70;41.50;;;;;;5051772;28;20044;-71
2021/08/14 11:28:51;;;;;;;6.95;2.30;;;51.00;41.10;;;;;;5050972;28;20036;-66
2021/08/14 11:31:56;;;;;;;5.70;2.25;;;50.30;40.30;;;;;;5051849;28;20048;-68
2021/08/14 11:35:05;;;;;;;6.60;2.40;;;51.10;39.90;;;;;;5051768;28;20526;-68
2021/08/14 11:38:13;;;;;;;6.55;2.10;;;51.70;39.20;;;;;;5051478;28;20039;-68
2021/08/14 11:41:19;;;;;;;3.22;1.98;;;52.00;39.90;;;;;;5061877;28;20419;-68
2021/08/14 11:44:25;;;;;;;6.43;2.40;;;53.00;39.40;;;;;;5051386;28;20046;-68
2021/08/14 11:47:39;;;;;;;9.75;2.17;;;52.80;39.50;;;;;;5051577;28;20499;-68
2021/08/14 11:50:47;;;;;;;10.85;2.80;;;52.70;39.90;;;;;;5050187;28;20040;-68
2021/08/14 11:54:10;;;;;;;4.43;2.25;;;52.40;39.50;;;;;;5051264;28;20048;-69
2021/08/14 11:57:14;;;;;;;5.80;2.38;;;53.10;39.40;;;;;;5051117;28;20044;-69
2021/08/14 12:00:20;;;;;;;6.80;2.13;;;53.40;39.80;;;;;;5050652;28;20040;-67
2021/08/14 12:03:25;;;;;;;7.55;2.65;;;53.40;39.60;;;;;;5050928;28;20048;-68
2021/08/14 12:06:32;;;;;;;4.47;2.17;;;47.70;41.30;;;;;;5050793;28;20040;-68
2021/08/14 12:09:36;;;;;;;4.20;2.72;;;46.20;42.90;;;;;;5050753;28;20044;-67
2021/08/14 12:12:54;;;;;;;5.60;2.55;;;46.40;41.90;;;;;;5051179;28;20036;-68
2021/08/14 12:16:20;;;;;;;8.50;2.90;;;46.30;40.70;;;;;;5051088;28;20463;-67
2021/08/14 12:19:27;;;;;;;6.88;2.40;;;46.20;39.80;;;;;;5050102;28;20048;-68
2021/08/14 12:22:32;;;;;;;6.05;2.05;;;49.10;38.90;;;;;;5050226;28;20052;-68
2021/08/14 12:25:57;;;;;;;6.18;2.10;;;51.40;38.30;;;;;;5050541;28;20052;-69
2021/08/14 12:29:06;;;;;;;4.82;1.95;;;51.00;37.30;;;;;;5049120;28;20120;-69
2021/08/14 12:32:11;;;;;;;6.35;2.10;;;48.40;37.80;;;;;;5050324;28;20040;-68
2021/08/14 12:35:23;;;;;;;4.20;1.90;;;49.70;37.50;;;;;;5050479;28;20048;-68
2021/08/14 12:38:28;;;;;;;5.10;2.17;;;46.70;37.90;;;;;;5049506;28;20063;-68
2021/08/14 12:41:41;;;;;;;5.95;2.40;;;45.70;37.50;;;;;;5049893;28;20044;-68
2021/08/14 12:44:47;;;;;;;4.60;2.05;;;44.20;40.40;;;;;;5049490;28;20074;-68
2021/08/14 12:47:52;;;;;;;5.28;2.38;;;46.20;39.00;;;;;;5049701;28;20040;-68
2021/08/14 12:51:08;;;;;;;5.10;2.25;;;48.50;39.20;;;;;;5060941;28;20044;-68
2021/08/14 12:54:13;;;;;;;5.50;1.95;;;48.10;38.60;;;;;;5049711;28;20056;-68
2021/08/14 12:57:17;;;;;;;7.05;2.50;;;48.80;38.50;;;;;;5049293;28;20506;-68
2021/08/14 13:00:24;;;;;;;5.10;2.40;;;48.00;39.40;;;;;;5049949;28;20040;-68
2021/08/14 13:03:29;;;;;;;5.00;2.58;;;46.40;39.80;;;;;;5049885;28;20055;-68
2021/08/14 13:06:35;;;;;;;8.82;2.55;;;46.50;40.40;;;;;;5050160;28;20048;-68
2021/08/14 13:09:39;;;;;;;7.82;2.80;;;46.40;40.50;;;;;;5049719;28;20040;-68
2021/08/14 13:12:50;;;;;;;9.57;3.10;;;45.90;41.10;;;;;;5048874;28;20048;-68
2021/08/14 13:15:54;;;;;;;19.17;3.25;;;44.70;41.20;;;;;;5049979;28;20036;-67
2021/08/14 13:18:58;;;;;;;6.95;3.45;;;44.50;41.90;;;;;;5049403;28;20048;-67
2021/08/14 13:22:03;;;;;;;3.55;2.40;;;45.30;42.90;;;;;;5049550;28;20052;-66
2021/08/14 13:25:08;;;;;;;6.35;2.63;;;43.40;40.10;;;;;;5049700;28;20052;-67
2021/08/14 13:28:12;;;;;;;5.65;3.17;;;43.80;41.10;;;;;;5049141;28;20044;-66
2021/08/14 13:31:16;;;;;;;9.52;2.83;;;44.40;41.00;;;;;;5029637;28;20041;-66
2021/08/14 13:34:20;;;;;;;6.28;3.22;;;43.70;42.30;;;;;;5029598;28;20507;-65
2021/08/14 13:37:26;;;;;;;5.68;2.97;;;41.60;42.20;;;;;;5029741;28;20044;-66
2021/08/14 13:40:30;;;;;;;4.63;2.78;;;41.90;43.00;;;;;;5029613;28;20515;-67
2021/08/14 13:43:35;;;;;;;6.80;3.17;;;42.00;43.20;;;;;;5029483;28;20044;-67
2021/08/14 13:46:39;;;;;;;5.28;3.03;;;41.40;43.50;;;;;;5029811;28;20040;-67
2021/08/14 13:49:43;;;;;;;6.57;3.10;;;41.20;43.40;;;;;;5029074;28;20045;-67
2021/08/14 13:52:48;;;;;;;7.00;2.70;;;42.00;43.20;;;;;;5029645;28;20440;-68
2021/08/14 13:55:53;;;;;;;8.48;3.17;;;41.70;42.60;;;;;;5040158;28;20044;-68
2021/08/14 13:58:58;;;;;;;9.82;3.20;;;40.90;43.90;;;;;;5029074;28;20057;-67
2021/08/14 14:02:03;;;;;;;9.27;2.90;;;41.00;43.40;;;;;;5029475;28;20037;-67
2021/08/14 14:05:09;;;;;;;5.78;2.97;;;40.30;42.70;;;;;;5029597;28;20052;-68
2021/08/14 14:08:13;;;;;;;8.35;2.90;;;40.40;43.40;;;;;;5032851;28;20032;-68
2021/08/14 14:11:17;;;;;;;4.72;2.50;;;41.40;42.90;;;;;;5033036;28;20040;-67
2021/08/14 14:14:21;;;;;;;2.80;2.40;;;41.10;40.70;;;;;;5033153;28;20068;-68
2021/08/14 14:17:25;;;;;;;8.88;3.15;;;40.80;42.00;;;;;;5033453;28;20594;-68
2021/08/14 14:20:30;;;;;;;6.68;2.88;;;41.10;42.00;;;;;;5031607;28;20041;-67
2021/08/14 14:23:35;;;;;;;6.97;2.80;;;41.20;42.10;;;;;;5033080;28;20048;-68
2021/08/14 14:26:38;;;;;;;5.30;3.10;;;42.00;42.40;;;;;;5033217;28;20040;-68
2021/08/14 14:29:43;;;;;;;5.68;3.15;;;42.50;42.20;;;;;;5039413;28;20057;-68
2021/08/14 14:32:47;;;;;;;8.48;2.85;;;42.50;42.50;;;;;;5053115;28;20052;-67
2021/08/14 14:35:51;;;;;;;9.82;3.10;;;42.50;41.80;;;;;;5052785;28;20048;-67
2021/08/14 14:38:56;;;;;;;7.20;2.97;;;42.90;41.70;;;;;;5052361;28;20044;-67
2021/08/14 14:42:06;;;;;;;5.38;2.53;;;43.20;41.80;;;;;;5052437;28;20040;-68
2021/08/14 14:45:10;;;;;;;6.43;2.90;;;42.20;42.00;;;;;;5052322;28;20044;-67
2021/08/14 14:48:14;;;;;;;5.10;2.92;;;42.60;42.40;;;;;;5051906;28;20044;-67
2021/08/14 14:51:19;;;;;;;7.70;3.47;;;42.70;42.40;;;;;;5051616;28;20036;-65
2021/08/14 14:54:23;;;;;;;6.40;2.65;;;41.90;42.50;;;;;;5051590;28;20044;-66
2021/08/14 14:57:27;;;;;;;5.70;2.90;;;42.10;42.70;;;;;;5052389;28;20048;-67
2021/08/14 15:00:32;;;;;;;4.88;2.80;;;42.20;42.50;;;;;;5051679;28;20542;-67
2021/08/14 15:03:36;;;;;;;5.15;3.03;;;42.20;42.40;;;;;;5052273;28;20043;-67
2021/08/14 15:06:40;;;;;;;5.22;3.08;;;42.20;42.90;;;;;;5051778;28;20505;-66
2021/08/14 15:09:45;;;;;;;5.95;3.47;;;42.10;42.90;;;;;;5051840;28;20040;-66
2021/08/14 15:12:49;;;;;;;6.65;2.80;;;42.10;42.60;;;;;;5051148;28;20048;-67
2021/08/14 15:15:53;;;;;;;7.57;3.15;;;41.80;42.90;;;;;;5051561;28;20044;-66
2021/08/14 15:18:57;;;;;;;8.77;3.45;;;40.90;43.00;;;;;;5050730;28;20052;-67
2021/08/14 15:22:02;;;;;;;11.18;3.40;;;40.60;43.80;;;;;;5050963;28;20060;-67
2021/08/14 15:25:07;;;;;;;4.40;2.90;;;40.80;43.60;;;;;;5050796;28;20044;-66
2021/08/14 15:28:12;;;;;;;3.85;2.83;;;41.00;43.90;;;;;;5051513;28;20044;-66
2021/08/14 15:31:17;;;;;;;5.00;3.00;;;41.10;43.80;;;;;;5031381;28;20040;-67
2021/08/14 15:34:21;;;;;;;8.48;3.03;;;41.00;43.50;;;;;;5031909;28;20044;-67
2021/08/14 15:37:25;;;;;;;6.22;3.15;;;40.90;44.50;;;;;;5031411;28;20526;-67
2021/08/14 15:40:31;;;;;;;7.43;3.13;;;41.10;44.80;;;;;;5030544;28;20048;-66
2021/08/14 15:43:36;;;;;;;6.15;3.65;;;41.20;44.90;;;;;;5031148;28;20044;-67
2021/08/14 15:46:41;;;;;;;9.18;4.00;;;41.10;45.10;;;;;;5031130;28;20045;-67
2021/08/14 15:49:45;;;;;;;8.23;3.40;;;41.00;44.40;;;;;;5031088;28;20057;-67
2021/08/14 15:52:50;;;;;;;7.38;4.13;;;40.70;44.60;;;;;;5030497;28;20040;-67
2021/08/14 15:55:54;;;;;;;9.98;3.88;;;40.70;45.50;;;;;;5030427;28;20048;-67
2021/08/14 15:59:00;;;;;;;16.58;5.13;;;40.60;45.80;;;;;;5030400;28;20044;-65
2021/08/14 16:02:05;;;;;;;8.90;3.63;;;40.50;46.50;;;;;;5030641;28;20117;-67